sensor_id;sensor_type;location;lat;lon;timestamp;P1;durP1;ratioP1;P2;durP2;ratioP2
62848;SDS011;48941;49.516;8.286;2022-12-08T00:01:16;20.35;;;10.18;;
62848;SDS011;48941;49.516;8.286;2022-12-08T00:03:46;16.70;;;8.73;;
62848;SDS011;48941;49.516;8.286;2022-12-08T00:06:18;20.10;;;10.10;;
62848;SDS011;48941;49.516;8.286;2022-12-08T00:09:11;17.40;;;9.35;;
62848;SDS011;48941;49.516;8.286;2022-12-08T00:11:50;18.08;;;8.77;;
62848;SDS011;48941;49.516;8.286;2022-12-08T00:14:19;16.52;;;8.30;;
62848;SDS011;48941;49.516;8.286;2022-12-08T00:16:50;16.83;;;8.88;;
62848;SDS011;48941;49.516;8.286;2022-12-08T00:19:19;22.98;;;11.63;;
62848;SDS011;48941;49.516;8.286;2022-12-08T00:21:48;20.27;;;10.13;;
62848;SDS011;48941;49.516;8.286;2022-12-08T00:24:16;14.20;;;8.68;;
62848;SDS011;48941;49.516;8.286;2022-12-08T00:26:45;14.75;;;8.55;;
62848;SDS011;48941;49.516;8.286;2022-12-08T00:29:13;14.82;;;8.93;;
62848;SDS011;48941;49.516;8.286;2022-12-08T00:31:43;14.23;;;7.85;;
62848;SDS011;48941;49.516;8.286;2022-12-08T00:34:11;15.45;;;8.63;;
62848;SDS011;48941;49.516;8.286;2022-12-08T00:36:39;15.05;;;8.38;;
62848;SDS011;48941;49.516;8.286;2022-12-08T00:39:08;12.73;;;7.78;;
62848;SDS011;48941;49.516;8.286;2022-12-08T00:41:37;13.75;;;7.85;;
62848;SDS011;48941;49.516;8.286;2022-12-08T00:44:22;14.40;;;7.88;;
62848;SDS011;48941;49.516;8.286;2022-12-08T00:46:50;15.98;;;7.88;;
62848;SDS011;48941;49.516;8.286;2022-12-08T00:49:18;15.00;;;8.52;;
62848;SDS011;48941;49.516;8.286;2022-12-08T00:51:46;15.88;;;8.38;;
62848;SDS011;48941;49.516;8.286;2022-12-08T00:54:15;13.82;;;8.18;;
62848;SDS011;48941;49.516;8.286;2022-12-08T00:56:43;17.92;;;8.75;;
62848;SDS011;48941;49.516;8.286;2022-12-08T00:59:11;18.98;;;9.02;;
62848;SDS011;48941;49.516;8.286;2022-12-08T01:01:39;18.45;;;9.13;;
62848;SDS011;48941;49.516;8.286;2022-12-08T01:04:08;19.48;;;9.02;;
62848;SDS011;48941;49.516;8.286;2022-12-08T01:06:40;21.08;;;9.63;;
62848;SDS011;48941;49.516;8.286;2022-12-08T01:09:09;18.13;;;8.63;;
62848;SDS011;48941;49.516;8.286;2022-12-08T01:11:40;18.65;;;9.18;;
62848;SDS011;48941;49.516;8.286;2022-12-08T01:14:08;44.75;;;14.82;;
62848;SDS011;48941;49.516;8.286;2022-12-08T01:16:35;33.90;;;12.48;;
62848;SDS011;48941;49.516;8.286;2022-12-08T01:19:04;36.08;;;12.65;;
62848;SDS011;48941;49.516;8.286;2022-12-08T01:21:31;26.25;;;11.45;;
62848;SDS011;48941;49.516;8.286;2022-12-08T01:23:59;18.15;;;9.38;;
62848;SDS011;48941;49.516;8.286;2022-12-08T01:26:28;12.70;;;7.70;;
62848;SDS011;48941;49.516;8.286;2022-12-08T01:28:57;15.35;;;8.40;;
62848;SDS011;48941;49.516;8.286;2022-12-08T01:31:25;17.70;;;7.88;;
62848;SDS011;48941;49.516;8.286;2022-12-08T01:33:53;18.23;;;8.10;;
62848;SDS011;48941;49.516;8.286;2022-12-08T01:36:21;16.45;;;8.70;;
62848;SDS011;48941;49.516;8.286;2022-12-08T01:38:52;16.60;;;8.43;;
62848;SDS011;48941;49.516;8.286;2022-12-08T01:41:22;15.73;;;7.75;;
62848;SDS011;48941;49.516;8.286;2022-12-08T01:43:57;17.10;;;8.23;;
62848;SDS011;48941;49.516;8.286;2022-12-08T01:46:26;16.02;;;7.53;;
62848;SDS011;48941;49.516;8.286;2022-12-08T01:48:57;19.35;;;8.43;;
62848;SDS011;48941;49.516;8.286;2022-12-08T01:51:29;14.52;;;8.02;;
62848;SDS011;48941;49.516;8.286;2022-12-08T01:54:02;15.13;;;8.35;;
62848;SDS011;48941;49.516;8.286;2022-12-08T01:56:34;16.98;;;8.18;;
62848;SDS011;48941;49.516;8.286;2022-12-08T01:59:05;15.43;;;8.25;;
62848;SDS011;48941;49.516;8.286;2022-12-08T02:01:33;15.55;;;8.45;;
62848;SDS011;48941;49.516;8.286;2022-12-08T02:04:01;15.73;;;8.23;;
62848;SDS011;48941;49.516;8.286;2022-12-08T02:06:31;16.52;;;8.43;;
62848;SDS011;48941;49.516;8.286;2022-12-08T02:09:01;15.07;;;7.70;;
62848;SDS011;48941;49.516;8.286;2022-12-08T02:11:31;13.95;;;7.35;;
62848;SDS011;48941;49.516;8.286;2022-12-08T02:13:59;15.70;;;7.90;;
62848;SDS011;48941;49.516;8.286;2022-12-08T02:16:34;15.35;;;7.35;;
62848;SDS011;48941;49.516;8.286;2022-12-08T02:19:19;13.60;;;7.35;;
62848;SDS011;48941;49.516;8.286;2022-12-08T02:22:10;12.02;;;7.18;;
62848;SDS011;48941;49.516;8.286;2022-12-08T02:24:44;13.63;;;7.45;;
62848;SDS011;48941;49.516;8.286;2022-12-08T02:27:27;12.02;;;7.00;;
62848;SDS011;48941;49.516;8.286;2022-12-08T02:30:20;14.50;;;7.30;;
62848;SDS011;48941;49.516;8.286;2022-12-08T02:36:09;14.18;;;7.15;;
62848;SDS011;48941;49.516;8.286;2022-12-08T02:38:45;15.88;;;7.00;;
62848;SDS011;48941;49.516;8.286;2022-12-08T02:41:22;12.85;;;6.88;;
62848;SDS011;48941;49.516;8.286;2022-12-08T02:43:59;13.43;;;6.72;;
62848;SDS011;48941;49.516;8.286;2022-12-08T02:46:33;11.95;;;6.80;;
62848;SDS011;48941;49.516;8.286;2022-12-08T02:49:07;12.85;;;6.30;;
62848;SDS011;48941;49.516;8.286;2022-12-08T02:51:35;12.38;;;6.30;;
62848;SDS011;48941;49.516;8.286;2022-12-08T02:54:03;12.02;;;6.25;;
62848;SDS011;48941;49.516;8.286;2022-12-08T02:56:37;13.00;;;6.32;;
62848;SDS011;48941;49.516;8.286;2022-12-08T02:59:21;10.75;;;5.97;;
62848;SDS011;48941;49.516;8.286;2022-12-08T03:02:04;10.32;;;6.70;;
62848;SDS011;48941;49.516;8.286;2022-12-08T03:04:45;14.50;;;7.15;;
62848;SDS011;48941;49.516;8.286;2022-12-08T03:07:23;14.50;;;7.18;;
62848;SDS011;48941;49.516;8.286;2022-12-08T03:09:58;10.73;;;6.45;;
62848;SDS011;48941;49.516;8.286;2022-12-08T03:12:31;12.70;;;6.63;;
62848;SDS011;48941;49.516;8.286;2022-12-08T03:15:05;12.18;;;6.22;;
62848;SDS011;48941;49.516;8.286;2022-12-08T03:17:36;11.60;;;6.50;;
62848;SDS011;48941;49.516;8.286;2022-12-08T03:20:09;10.60;;;6.00;;
62848;SDS011;48941;49.516;8.286;2022-12-08T03:22:40;12.82;;;6.68;;
62848;SDS011;48941;49.516;8.286;2022-12-08T03:25:09;12.52;;;5.93;;
62848;SDS011;48941;49.516;8.286;2022-12-08T03:27:41;11.27;;;6.55;;
62848;SDS011;48941;49.516;8.286;2022-12-08T03:30:09;10.15;;;6.43;;
62848;SDS011;48941;49.516;8.286;2022-12-08T03:32:38;10.90;;;6.13;;
62848;SDS011;48941;49.516;8.286;2022-12-08T03:35:15;12.15;;;6.63;;
62848;SDS011;48941;49.516;8.286;2022-12-08T03:37:46;9.98;;;6.05;;
62848;SDS011;48941;49.516;8.286;2022-12-08T03:40:15;10.35;;;5.95;;
62848;SDS011;48941;49.516;8.286;2022-12-08T03:42:45;11.15;;;6.03;;
62848;SDS011;48941;49.516;8.286;2022-12-08T03:45:13;9.90;;;6.03;;
62848;SDS011;48941;49.516;8.286;2022-12-08T03:47:40;11.25;;;5.82;;
62848;SDS011;48941;49.516;8.286;2022-12-08T03:50:09;9.88;;;6.00;;
62848;SDS011;48941;49.516;8.286;2022-12-08T03:52:39;9.60;;;5.60;;
62848;SDS011;48941;49.516;8.286;2022-12-08T03:55:07;8.30;;;5.63;;
62848;SDS011;48941;49.516;8.286;2022-12-08T03:57:35;11.82;;;6.05;;
62848;SDS011;48941;49.516;8.286;2022-12-08T04:00:03;10.30;;;6.47;;
62848;SDS011;48941;49.516;8.286;2022-12-08T04:02:33;9.30;;;5.78;;
62848;SDS011;48941;49.516;8.286;2022-12-08T04:05:00;8.88;;;5.47;;
62848;SDS011;48941;49.516;8.286;2022-12-08T04:07:28;10.73;;;5.97;;
62848;SDS011;48941;49.516;8.286;2022-12-08T04:09:57;12.30;;;6.72;;
62848;SDS011;48941;49.516;8.286;2022-12-08T04:12:25;9.18;;;5.35;;
62848;SDS011;48941;49.516;8.286;2022-12-08T04:14:53;8.98;;;5.57;;
62848;SDS011;48941;49.516;8.286;2022-12-08T04:17:21;11.95;;;6.35;;
62848;SDS011;48941;49.516;8.286;2022-12-08T04:19:48;12.55;;;6.13;;
62848;SDS011;48941;49.516;8.286;2022-12-08T04:22:16;10.15;;;5.43;;
62848;SDS011;48941;49.516;8.286;2022-12-08T04:24:44;11.65;;;6.20;;
62848;SDS011;48941;49.516;8.286;2022-12-08T04:27:13;12.55;;;6.30;;
62848;SDS011;48941;49.516;8.286;2022-12-08T04:29:40;9.18;;;5.78;;
62848;SDS011;48941;49.516;8.286;2022-12-08T04:32:08;10.20;;;5.80;;
62848;SDS011;48941;49.516;8.286;2022-12-08T04:34:36;9.70;;;5.82;;
62848;SDS011;48941;49.516;8.286;2022-12-08T04:37:04;12.63;;;6.10;;
62848;SDS011;48941;49.516;8.286;2022-12-08T04:39:31;12.68;;;6.55;;
62848;SDS011;48941;49.516;8.286;2022-12-08T04:41:59;13.63;;;6.60;;
62848;SDS011;48941;49.516;8.286;2022-12-08T04:44:28;10.98;;;6.18;;
62848;SDS011;48941;49.516;8.286;2022-12-08T04:46:56;12.38;;;6.53;;
62848;SDS011;48941;49.516;8.286;2022-12-08T04:49:24;12.05;;;6.30;;
62848;SDS011;48941;49.516;8.286;2022-12-08T04:51:52;10.05;;;6.15;;
62848;SDS011;48941;49.516;8.286;2022-12-08T04:54:19;7.95;;;5.75;;
62848;SDS011;48941;49.516;8.286;2022-12-08T04:56:47;12.25;;;6.18;;
62848;SDS011;48941;49.516;8.286;2022-12-08T04:59:15;9.70;;;6.57;;
62848;SDS011;48941;49.516;8.286;2022-12-08T05:01:44;11.63;;;6.53;;
62848;SDS011;48941;49.516;8.286;2022-12-08T05:04:12;9.45;;;6.07;;
62848;SDS011;48941;49.516;8.286;2022-12-08T05:06:39;10.80;;;6.40;;
62848;SDS011;48941;49.516;8.286;2022-12-08T05:09:07;11.60;;;6.05;;
62848;SDS011;48941;49.516;8.286;2022-12-08T05:11:35;9.95;;;6.00;;
62848;SDS011;48941;49.516;8.286;2022-12-08T05:14:14;10.07;;;6.03;;
62848;SDS011;48941;49.516;8.286;2022-12-08T05:16:44;13.90;;;7.10;;
62848;SDS011;48941;49.516;8.286;2022-12-08T05:19:13;14.55;;;7.28;;
62848;SDS011;48941;49.516;8.286;2022-12-08T05:21:43;16.55;;;8.50;;
62848;SDS011;48941;49.516;8.286;2022-12-08T05:24:11;18.15;;;9.02;;
62848;SDS011;48941;49.516;8.286;2022-12-08T05:26:38;12.85;;;7.40;;
62848;SDS011;48941;49.516;8.286;2022-12-08T05:29:06;12.48;;;6.95;;
62848;SDS011;48941;49.516;8.286;2022-12-08T05:31:34;11.70;;;6.70;;
62848;SDS011;48941;49.516;8.286;2022-12-08T05:34:03;10.95;;;6.00;;
62848;SDS011;48941;49.516;8.286;2022-12-08T05:36:31;11.57;;;6.10;;
62848;SDS011;48941;49.516;8.286;2022-12-08T05:38:58;14.13;;;6.28;;
62848;SDS011;48941;49.516;8.286;2022-12-08T05:41:26;20.80;;;6.68;;
62848;SDS011;48941;49.516;8.286;2022-12-08T05:43:54;10.25;;;5.60;;
62848;SDS011;48941;49.516;8.286;2022-12-08T05:46:21;10.43;;;5.65;;
62848;SDS011;48941;49.516;8.286;2022-12-08T05:48:54;9.90;;;5.43;;
62848;SDS011;48941;49.516;8.286;2022-12-08T05:51:23;8.68;;;5.53;;
62848;SDS011;48941;49.516;8.286;2022-12-08T05:53:51;9.43;;;5.53;;
62848;SDS011;48941;49.516;8.286;2022-12-08T05:56:20;12.38;;;6.10;;
62848;SDS011;48941;49.516;8.286;2022-12-08T05:58:48;12.05;;;5.90;;
62848;SDS011;48941;49.516;8.286;2022-12-08T06:01:17;10.27;;;6.00;;
62848;SDS011;48941;49.516;8.286;2022-12-08T06:03:49;9.95;;;5.70;;
62848;SDS011;48941;49.516;8.286;2022-12-08T06:06:17;16.00;;;5.85;;
62848;SDS011;48941;49.516;8.286;2022-12-08T06:08:47;10.25;;;5.82;;
62848;SDS011;48941;49.516;8.286;2022-12-08T06:11:18;11.55;;;5.95;;
62848;SDS011;48941;49.516;8.286;2022-12-08T06:13:47;9.88;;;6.10;;
62848;SDS011;48941;49.516;8.286;2022-12-08T06:16:16;10.77;;;5.97;;
62848;SDS011;48941;49.516;8.286;2022-12-08T06:18:47;9.90;;;5.90;;
62848;SDS011;48941;49.516;8.286;2022-12-08T06:21:15;12.68;;;6.53;;
62848;SDS011;48941;49.516;8.286;2022-12-08T06:23:46;10.93;;;5.80;;
62848;SDS011;48941;49.516;8.286;2022-12-08T06:26:16;12.90;;;6.40;;
62848;SDS011;48941;49.516;8.286;2022-12-08T06:28:44;12.00;;;5.82;;
62848;SDS011;48941;49.516;8.286;2022-12-08T06:31:13;12.63;;;5.97;;
62848;SDS011;48941;49.516;8.286;2022-12-08T06:33:43;9.90;;;6.10;;
62848;SDS011;48941;49.516;8.286;2022-12-08T06:36:11;10.75;;;5.95;;
62848;SDS011;48941;49.516;8.286;2022-12-08T06:38:40;11.98;;;6.35;;
62848;SDS011;48941;49.516;8.286;2022-12-08T06:41:11;10.75;;;6.50;;
62848;SDS011;48941;49.516;8.286;2022-12-08T06:43:39;10.77;;;6.22;;
62848;SDS011;48941;49.516;8.286;2022-12-08T06:46:08;12.88;;;6.28;;
62848;SDS011;48941;49.516;8.286;2022-12-08T06:48:37;11.38;;;6.00;;
62848;SDS011;48941;49.516;8.286;2022-12-08T06:51:05;13.15;;;6.90;;
62848;SDS011;48941;49.516;8.286;2022-12-08T06:53:34;12.73;;;7.45;;
62848;SDS011;48941;49.516;8.286;2022-12-08T06:56:03;12.07;;;6.97;;
62848;SDS011;48941;49.516;8.286;2022-12-08T06:58:32;13.77;;;7.80;;
62848;SDS011;48941;49.516;8.286;2022-12-08T07:01:04;15.75;;;8.05;;
62848;SDS011;48941;49.516;8.286;2022-12-08T07:03:33;16.63;;;7.30;;
62848;SDS011;48941;49.516;8.286;2022-12-08T07:06:02;14.90;;;7.25;;
62848;SDS011;48941;49.516;8.286;2022-12-08T07:08:30;14.50;;;7.25;;
62848;SDS011;48941;49.516;8.286;2022-12-08T07:10:58;16.05;;;7.25;;
62848;SDS011;48941;49.516;8.286;2022-12-08T07:13:26;13.75;;;6.75;;
62848;SDS011;48941;49.516;8.286;2022-12-08T07:15:55;15.50;;;7.50;;
62848;SDS011;48941;49.516;8.286;2022-12-08T07:18:23;16.92;;;7.75;;
62848;SDS011;48941;49.516;8.286;2022-12-08T07:20:51;19.52;;;8.23;;
62848;SDS011;48941;49.516;8.286;2022-12-08T07:23:18;13.00;;;7.10;;
62848;SDS011;48941;49.516;8.286;2022-12-08T07:25:46;14.57;;;7.45;;
62848;SDS011;48941;49.516;8.286;2022-12-08T07:28:14;13.38;;;6.88;;
62848;SDS011;48941;49.516;8.286;2022-12-08T07:30:41;13.55;;;7.20;;
62848;SDS011;48941;49.516;8.286;2022-12-08T07:33:11;12.77;;;6.63;;
62848;SDS011;48941;49.516;8.286;2022-12-08T07:35:38;13.88;;;6.80;;
62848;SDS011;48941;49.516;8.286;2022-12-08T07:38:14;11.77;;;6.53;;
62848;SDS011;48941;49.516;8.286;2022-12-08T07:40:42;13.50;;;6.65;;
62848;SDS011;48941;49.516;8.286;2022-12-08T07:43:09;11.73;;;6.90;;
62848;SDS011;48941;49.516;8.286;2022-12-08T07:45:38;13.85;;;7.00;;
62848;SDS011;48941;49.516;8.286;2022-12-08T07:48:06;13.18;;;6.80;;
62848;SDS011;48941;49.516;8.286;2022-12-08T07:50:36;12.30;;;6.95;;
62848;SDS011;48941;49.516;8.286;2022-12-08T07:53:04;13.80;;;7.28;;
62848;SDS011;48941;49.516;8.286;2022-12-08T07:55:32;13.77;;;6.70;;
62848;SDS011;48941;49.516;8.286;2022-12-08T07:58:00;11.57;;;6.05;;
62848;SDS011;48941;49.516;8.286;2022-12-08T08:00:28;12.85;;;6.15;;
62848;SDS011;48941;49.516;8.286;2022-12-08T08:02:56;12.18;;;5.88;;
62848;SDS011;48941;49.516;8.286;2022-12-08T08:05:24;10.80;;;5.80;;
62848;SDS011;48941;49.516;8.286;2022-12-08T08:07:53;12.35;;;6.60;;
62848;SDS011;48941;49.516;8.286;2022-12-08T08:10:21;10.75;;;6.10;;
62848;SDS011;48941;49.516;8.286;2022-12-08T08:12:49;10.35;;;6.32;;
62848;SDS011;48941;49.516;8.286;2022-12-08T08:15:17;17.85;;;6.68;;
62848;SDS011;48941;49.516;8.286;2022-12-08T08:17:48;15.13;;;7.30;;
62848;SDS011;48941;49.516;8.286;2022-12-08T08:20:16;11.13;;;6.60;;
62848;SDS011;48941;49.516;8.286;2022-12-08T08:22:44;13.93;;;7.07;;
62848;SDS011;48941;49.516;8.286;2022-12-08T08:25:14;13.52;;;6.80;;
62848;SDS011;48941;49.516;8.286;2022-12-08T08:27:42;12.20;;;6.65;;
62848;SDS011;48941;49.516;8.286;2022-12-08T08:30:11;11.38;;;6.38;;
62848;SDS011;48941;49.516;8.286;2022-12-08T08:32:45;11.85;;;6.65;;
62848;SDS011;48941;49.516;8.286;2022-12-08T08:35:13;13.38;;;6.70;;
62848;SDS011;48941;49.516;8.286;2022-12-08T08:37:41;13.13;;;7.07;;
62848;SDS011;48941;49.516;8.286;2022-12-08T08:40:15;15.15;;;6.82;;
62848;SDS011;48941;49.516;8.286;2022-12-08T08:42:43;11.10;;;6.25;;
62848;SDS011;48941;49.516;8.286;2022-12-08T08:45:11;13.77;;;6.68;;
62848;SDS011;48941;49.516;8.286;2022-12-08T08:47:39;14.57;;;7.30;;
62848;SDS011;48941;49.516;8.286;2022-12-08T08:50:07;16.88;;;6.97;;
62848;SDS011;48941;49.516;8.286;2022-12-08T08:52:35;14.27;;;7.55;;
62848;SDS011;48941;49.516;8.286;2022-12-08T08:55:03;13.57;;;6.85;;
62848;SDS011;48941;49.516;8.286;2022-12-08T08:57:33;15.02;;;7.07;;
62848;SDS011;48941;49.516;8.286;2022-12-08T09:00:01;14.93;;;7.57;;
62848;SDS011;48941;49.516;8.286;2022-12-08T09:02:30;16.98;;;7.93;;
62848;SDS011;48941;49.516;8.286;2022-12-08T09:04:58;16.58;;;7.95;;
62848;SDS011;48941;49.516;8.286;2022-12-08T09:07:26;17.52;;;7.60;;
62848;SDS011;48941;49.516;8.286;2022-12-08T09:09:53;14.15;;;7.28;;
62848;SDS011;48941;49.516;8.286;2022-12-08T09:12:27;15.35;;;7.68;;
62848;SDS011;48941;49.516;8.286;2022-12-08T09:14:56;13.20;;;7.32;;
62848;SDS011;48941;49.516;8.286;2022-12-08T09:17:24;15.93;;;8.13;;
62848;SDS011;48941;49.516;8.286;2022-12-08T09:19:52;18.27;;;8.30;;
62848;SDS011;48941;49.516;8.286;2022-12-08T09:22:19;20.38;;;9.75;;
62848;SDS011;48941;49.516;8.286;2022-12-08T09:24:48;15.48;;;7.95;;
62848;SDS011;48941;49.516;8.286;2022-12-08T09:27:16;16.58;;;7.97;;
62848;SDS011;48941;49.516;8.286;2022-12-08T09:29:44;15.40;;;7.78;;
62848;SDS011;48941;49.516;8.286;2022-12-08T09:32:13;16.17;;;8.60;;
62848;SDS011;48941;49.516;8.286;2022-12-08T09:34:41;14.82;;;8.60;;
62848;SDS011;48941;49.516;8.286;2022-12-08T09:37:17;15.68;;;7.95;;
62848;SDS011;48941;49.516;8.286;2022-12-08T09:39:45;15.98;;;8.70;;
62848;SDS011;48941;49.516;8.286;2022-12-08T09:42:13;18.58;;;8.98;;
62848;SDS011;48941;49.516;8.286;2022-12-08T09:44:53;15.35;;;8.32;;
62848;SDS011;48941;49.516;8.286;2022-12-08T09:47:31;14.05;;;7.85;;
62848;SDS011;48941;49.516;8.286;2022-12-08T09:50:03;18.13;;;8.27;;
62848;SDS011;48941;49.516;8.286;2022-12-08T09:52:37;17.67;;;8.27;;
62848;SDS011;48941;49.516;8.286;2022-12-08T09:55:10;19.38;;;9.45;;
62848;SDS011;48941;49.516;8.286;2022-12-08T09:57:43;16.65;;;8.73;;
62848;SDS011;48941;49.516;8.286;2022-12-08T10:00:20;16.52;;;8.43;;
62848;SDS011;48941;49.516;8.286;2022-12-08T10:02:50;13.57;;;7.50;;
62848;SDS011;48941;49.516;8.286;2022-12-08T10:05:17;14.75;;;7.53;;
62848;SDS011;48941;49.516;8.286;2022-12-08T10:07:47;12.93;;;7.20;;
62848;SDS011;48941;49.516;8.286;2022-12-08T10:10:26;15.02;;;7.95;;
62848;SDS011;48941;49.516;8.286;2022-12-08T10:13:02;13.63;;;7.53;;
62848;SDS011;48941;49.516;8.286;2022-12-08T10:15:43;17.88;;;7.72;;
62848;SDS011;48941;49.516;8.286;2022-12-08T10:18:19;14.05;;;7.25;;
62848;SDS011;48941;49.516;8.286;2022-12-08T10:20:50;15.27;;;8.18;;
62848;SDS011;48941;49.516;8.286;2022-12-08T10:23:26;12.65;;;7.30;;
62848;SDS011;48941;49.516;8.286;2022-12-08T10:25:59;17.48;;;7.20;;
62848;SDS011;48941;49.516;8.286;2022-12-08T10:28:28;14.43;;;7.50;;
62848;SDS011;48941;49.516;8.286;2022-12-08T10:30:58;12.80;;;7.22;;
62848;SDS011;48941;49.516;8.286;2022-12-08T10:33:30;14.55;;;7.70;;
62848;SDS011;48941;49.516;8.286;2022-12-08T10:35:58;14.20;;;7.88;;
62848;SDS011;48941;49.516;8.286;2022-12-08T10:38:28;15.80;;;8.48;;
62848;SDS011;48941;49.516;8.286;2022-12-08T10:40:58;14.70;;;7.75;;
62848;SDS011;48941;49.516;8.286;2022-12-08T10:43:30;12.60;;;7.35;;
62848;SDS011;48941;49.516;8.286;2022-12-08T10:46:09;20.20;;;8.50;;
62848;SDS011;48941;49.516;8.286;2022-12-08T10:48:47;13.93;;;7.80;;
62848;SDS011;48941;49.516;8.286;2022-12-08T10:51:24;14.93;;;7.53;;
62848;SDS011;48941;49.516;8.286;2022-12-08T10:53:55;13.52;;;7.40;;
62848;SDS011;48941;49.516;8.286;2022-12-08T10:56:24;11.95;;;7.10;;
62848;SDS011;48941;49.516;8.286;2022-12-08T10:59:04;14.15;;;7.45;;
62848;SDS011;48941;49.516;8.286;2022-12-08T11:01:38;13.98;;;7.20;;
62848;SDS011;48941;49.516;8.286;2022-12-08T11:04:12;11.95;;;6.90;;
62848;SDS011;48941;49.516;8.286;2022-12-08T11:06:43;13.95;;;6.68;;
62848;SDS011;48941;49.516;8.286;2022-12-08T11:09:29;10.75;;;6.43;;
62848;SDS011;48941;49.516;8.286;2022-12-08T11:12:06;9.00;;;5.55;;
62848;SDS011;48941;49.516;8.286;2022-12-08T11:14:45;11.93;;;5.90;;
62848;SDS011;48941;49.516;8.286;2022-12-08T11:17:16;11.52;;;6.45;;
62848;SDS011;48941;49.516;8.286;2022-12-08T11:19:55;10.80;;;5.90;;
62848;SDS011;48941;49.516;8.286;2022-12-08T11:22:26;11.55;;;6.15;;
62848;SDS011;48941;49.516;8.286;2022-12-08T11:24:59;8.80;;;5.20;;
62848;SDS011;48941;49.516;8.286;2022-12-08T11:27:29;9.98;;;6.15;;
62848;SDS011;48941;49.516;8.286;2022-12-08T11:29:59;10.65;;;6.07;;
62848;SDS011;48941;49.516;8.286;2022-12-08T11:32:29;11.00;;;6.40;;
62848;SDS011;48941;49.516;8.286;2022-12-08T11:34:58;15.60;;;6.60;;
62848;SDS011;48941;49.516;8.286;2022-12-08T11:40:03;13.32;;;6.72;;
62848;SDS011;48941;49.516;8.286;2022-12-08T11:42:34;17.52;;;7.07;;
62848;SDS011;48941;49.516;8.286;2022-12-08T11:45:12;12.60;;;6.68;;
62848;SDS011;48941;49.516;8.286;2022-12-08T11:47:48;11.80;;;6.57;;
62848;SDS011;48941;49.516;8.286;2022-12-08T11:50:27;12.18;;;7.25;;
62848;SDS011;48941;49.516;8.286;2022-12-08T11:52:57;12.15;;;6.93;;
62848;SDS011;48941;49.516;8.286;2022-12-08T11:55:29;11.15;;;6.45;;
62848;SDS011;48941;49.516;8.286;2022-12-08T11:58:09;12.70;;;6.70;;
62848;SDS011;48941;49.516;8.286;2022-12-08T12:00:41;11.18;;;6.75;;
62848;SDS011;48941;49.516;8.286;2022-12-08T12:03:11;13.07;;;7.20;;
62848;SDS011;48941;49.516;8.286;2022-12-08T12:05:52;13.00;;;7.30;;
62848;SDS011;48941;49.516;8.286;2022-12-08T12:08:57;9.95;;;6.55;;
62848;SDS011;48941;49.516;8.286;2022-12-08T12:11:34;10.85;;;6.68;;
62848;SDS011;48941;49.516;8.286;2022-12-08T12:14:43;12.55;;;6.68;;
62848;SDS011;48941;49.516;8.286;2022-12-08T12:17:27;11.15;;;6.78;;
62848;SDS011;48941;49.516;8.286;2022-12-08T12:20:01;15.00;;;7.07;;
62848;SDS011;48941;49.516;8.286;2022-12-08T12:22:38;15.18;;;7.38;;
62848;SDS011;48941;49.516;8.286;2022-12-08T12:25:14;13.70;;;7.30;;
62848;SDS011;48941;49.516;8.286;2022-12-08T12:27:44;15.20;;;7.15;;
62848;SDS011;48941;49.516;8.286;2022-12-08T12:30:18;12.63;;;7.05;;
62848;SDS011;48941;49.516;8.286;2022-12-08T12:32:50;11.52;;;6.43;;
62848;SDS011;48941;49.516;8.286;2022-12-08T12:35:26;11.90;;;7.00;;
62848;SDS011;48941;49.516;8.286;2022-12-08T12:38:02;9.13;;;6.10;;
62848;SDS011;48941;49.516;8.286;2022-12-08T12:40:57;9.73;;;6.00;;
62848;SDS011;48941;49.516;8.286;2022-12-08T12:51:58;11.35;;;6.28;;
62848;SDS011;48941;49.516;8.286;2022-12-08T12:54:27;13.68;;;7.38;;
62848;SDS011;48941;49.516;8.286;2022-12-08T12:56:55;11.80;;;6.82;;
62848;SDS011;48941;49.516;8.286;2022-12-08T12:59:43;14.02;;;7.25;;
62848;SDS011;48941;49.516;8.286;2022-12-08T13:02:21;11.05;;;6.43;;
62848;SDS011;48941;49.516;8.286;2022-12-08T13:04:52;9.55;;;6.18;;
62848;SDS011;48941;49.516;8.286;2022-12-08T13:07:23;11.50;;;6.43;;
62848;SDS011;48941;49.516;8.286;2022-12-08T13:09:56;9.88;;;5.85;;
62848;SDS011;48941;49.516;8.286;2022-12-08T13:12:27;8.73;;;6.00;;
62848;SDS011;48941;49.516;8.286;2022-12-08T13:14:59;9.45;;;6.03;;
62848;SDS011;48941;49.516;8.286;2022-12-08T13:17:30;10.63;;;6.35;;
62848;SDS011;48941;49.516;8.286;2022-12-08T13:20:00;9.55;;;6.70;;
62848;SDS011;48941;49.516;8.286;2022-12-08T13:31:40;13.52;;;7.47;;
62848;SDS011;48941;49.516;8.286;2022-12-08T13:34:17;12.82;;;7.65;;
62848;SDS011;48941;49.516;8.286;2022-12-08T13:36:54;17.17;;;8.27;;
62848;SDS011;48941;49.516;8.286;2022-12-08T13:39:29;16.80;;;8.13;;
62848;SDS011;48941;49.516;8.286;2022-12-08T13:42:04;15.88;;;8.07;;
62848;SDS011;48941;49.516;8.286;2022-12-08T13:44:40;18.52;;;9.43;;
62848;SDS011;48941;49.516;8.286;2022-12-08T13:47:34;16.40;;;8.50;;
62848;SDS011;48941;49.516;8.286;2022-12-08T13:50:25;12.20;;;6.95;;
62848;SDS011;48941;49.516;8.286;2022-12-08T13:53:17;12.57;;;7.35;;
62848;SDS011;48941;49.516;8.286;2022-12-08T13:56:09;12.73;;;7.50;;
62848;SDS011;48941;49.516;8.286;2022-12-08T13:59:07;12.48;;;7.40;;
62848;SDS011;48941;49.516;8.286;2022-12-08T14:01:39;10.55;;;6.93;;
62848;SDS011;48941;49.516;8.286;2022-12-08T14:04:13;12.75;;;7.40;;
62848;SDS011;48941;49.516;8.286;2022-12-08T14:07:03;13.70;;;7.57;;
62848;SDS011;48941;49.516;8.286;2022-12-08T14:09:32;14.13;;;7.63;;
62848;SDS011;48941;49.516;8.286;2022-12-08T14:12:03;14.13;;;6.90;;
62848;SDS011;48941;49.516;8.286;2022-12-08T14:14:35;12.50;;;7.78;;
62848;SDS011;48941;49.516;8.286;2022-12-08T14:17:26;12.63;;;7.80;;
62848;SDS011;48941;49.516;8.286;2022-12-08T14:19:54;16.05;;;8.27;;
62848;SDS011;48941;49.516;8.286;2022-12-08T14:22:30;14.68;;;7.40;;
62848;SDS011;48941;49.516;8.286;2022-12-08T14:24:59;15.45;;;7.95;;
62848;SDS011;48941;49.516;8.286;2022-12-08T14:27:32;12.93;;;7.80;;
62848;SDS011;48941;49.516;8.286;2022-12-08T14:30:04;13.20;;;7.78;;
62848;SDS011;48941;49.516;8.286;2022-12-08T14:32:34;16.02;;;8.13;;
62848;SDS011;48941;49.516;8.286;2022-12-08T14:35:11;15.38;;;7.93;;
62848;SDS011;48941;49.516;8.286;2022-12-08T14:37:46;12.85;;;7.80;;
62848;SDS011;48941;49.516;8.286;2022-12-08T14:40:18;13.23;;;8.30;;
62848;SDS011;48941;49.516;8.286;2022-12-08T14:42:50;15.30;;;7.63;;
62848;SDS011;48941;49.516;8.286;2022-12-08T14:45:21;14.90;;;7.95;;
62848;SDS011;48941;49.516;8.286;2022-12-08T14:47:49;13.93;;;8.02;;
62848;SDS011;48941;49.516;8.286;2022-12-08T14:50:37;11.80;;;7.25;;
62848;SDS011;48941;49.516;8.286;2022-12-08T14:53:11;13.85;;;7.78;;
62848;SDS011;48941;49.516;8.286;2022-12-08T14:55:41;14.23;;;7.78;;
62848;SDS011;48941;49.516;8.286;2022-12-08T14:58:15;13.60;;;8.48;;
62848;SDS011;48941;49.516;8.286;2022-12-08T15:00:46;14.55;;;9.00;;
62848;SDS011;48941;49.516;8.286;2022-12-08T15:03:17;15.65;;;9.25;;
62848;SDS011;48941;49.516;8.286;2022-12-08T15:05:49;17.67;;;9.75;;
62848;SDS011;48941;49.516;8.286;2022-12-08T15:08:18;16.02;;;9.00;;
62848;SDS011;48941;49.516;8.286;2022-12-08T15:10:46;17.00;;;9.13;;
62848;SDS011;48941;49.516;8.286;2022-12-08T15:13:33;17.45;;;9.40;;
62848;SDS011;48941;49.516;8.286;2022-12-08T15:21:42;17.40;;;8.80;;
62848;SDS011;48941;49.516;8.286;2022-12-08T15:24:11;14.65;;;8.88;;
62848;SDS011;48941;49.516;8.286;2022-12-08T15:26:40;19.65;;;9.63;;
62848;SDS011;48941;49.516;8.286;2022-12-08T15:29:12;15.25;;;8.25;;
62848;SDS011;48941;49.516;8.286;2022-12-08T15:31:46;19.40;;;9.90;;